Time;durP1;ratioP1;P1;durP2;ratioP2;P2;SDS_P1;SDS_P2;PMS_P1;PMS_P2;Temp;Humidity;BMP_temperature;BMP_pressure;BME280_temperature;BME280_humidity;BME280_pressure;Samples;Min_cycle;Max_cycle;Signal;HPM_P1;HPM_P2
2022/04/18 00:02:05;;;;;;;11.53;9.37;;;8.00;86.30;;;;;;5115372;28;20920;-43
2022/04/18 00:04:33;;;;;;;12.50;10.30;;;8.40;86.90;;;;;;5116032;28;20439;-44
2022/04/18 00:07:00;;;;;;;14.93;10.90;;;8.30;86.90;;;;;;5115483;28;20463;-44
2022/04/18 00:09:29;;;;;;;14.43;11.00;;;7.90;87.00;;;;;;5114697;28;20847;-44
2022/04/18 00:11:55;;;;;;;12.80;10.73;;;8.20;88.00;;;;;;5116420;28;20480;-44
2022/04/18 00:14:22;;;;;;;14.03;11.00;;;7.90;87.40;;;;;;5116108;28;20434;-43
2022/04/18 00:16:49;;;;;;;16.00;11.33;;;7.80;88.10;;;;;;5115847;28;20449;-44
2022/04/18 00:19:16;;;;;;;13.43;11.00;;;7.90;87.80;;;;;;5115371;28;20434;-44
2022/04/18 00:21:43;;;;;;;13.30;11.60;;;8.00;89.00;;;;;;5115322;28;20475;-43
2022/04/18 00:24:11;;;;;;;15.23;11.73;;;8.00;89.40;;;;;;5115816;28;20446;-43
2022/04/18 00:26:39;;;;;;;13.17;11.77;;;7.80;90.10;;;;;;5115942;28;20929;-45
2022/04/18 00:29:06;;;;;;;14.00;12.03;;;7.80;90.00;;;;;;5114810;28;20433;-43
2022/04/18 00:31:32;;;;;;;13.53;11.43;;;7.80;90.10;;;;;;5096892;28;20446;-43
2022/04/18 00:33:59;;;;;;;14.17;11.53;;;7.60;90.00;;;;;;5114946;28;20849;-43
2022/04/18 00:36:26;;;;;;;12.47;10.63;;;7.60;90.40;;;;;;5096816;28;20446;-43
2022/04/18 00:38:54;;;;;;;14.73;11.17;;;7.50;90.20;;;;;;5115251;28;20425;-43
2022/04/18 00:41:20;;;;;;;13.33;10.50;;;7.50;90.40;;;;;;5096737;28;20562;-43
2022/04/18 00:43:49;;;;;;;15.63;12.57;;;7.50;90.60;;;;;;5114510;28;20440;-43
2022/04/18 00:46:17;;;;;;;14.50;10.97;;;7.50;91.00;;;;;;5095918;28;20453;-43
2022/04/18 00:48:45;;;;;;;12.73;11.27;;;7.50;91.00;;;;;;5113718;28;20438;-42
2022/04/18 00:51:13;;;;;;;15.13;12.17;;;7.60;91.20;;;;;;5114083;28;20578;-44
2022/04/18 00:53:41;;;;;;;14.23;12.37;;;7.70;91.30;;;;;;5116367;28;20578;-42
2022/04/18 00:56:12;;;;;;;13.03;11.50;;;7.50;91.20;;;;;;5117359;28;20924;-43
2022/04/18 00:58:42;;;;;;;17.07;11.30;;;7.50;91.40;;;;;;5099324;28;21056;-43
2022/04/18 01:01:10;;;;;;;15.10;12.07;;;7.50;91.60;;;;;;5096747;28;20485;-42
2022/04/18 01:03:36;;;;;;;13.00;11.70;;;7.20;91.60;;;;;;5095620;28;20950;-44
2022/04/18 01:06:04;;;;;;;15.87;11.70;;;7.30;91.40;;;;;;5095389;28;20525;-42
2022/04/18 01:08:33;;;;;;;17.23;11.73;;;7.50;91.90;;;;;;5094618;28;20485;-43
2022/04/18 01:11:00;;;;;;;16.27;11.90;;;7.20;91.90;;;;;;5095316;28;20471;-44
2022/04/18 01:14:01;;;;;;;14.73;12.03;;;7.40;92.20;;;;;;5100265;28;20450;-43
2022/04/18 01:16:47;;;;;;;20.83;11.83;;;7.40;92.40;;;;;;5095218;28;20558;-43
2022/04/18 01:19:22;;;;;;;15.57;11.93;;;7.00;92.70;;;;;;5094775;28;20469;-42
2022/04/18 01:22:01;;;;;;;16.20;11.97;;;7.20;92.90;;;;;;5094893;28;20868;-42
2022/04/18 01:30:44;;;;;;;15.53;11.80;;;6.90;93.60;;;;;;5028178;28;20523;-42
2022/04/18 01:33:12;;;;;;;15.17;11.77;;;7.00;94.00;;;;;;5077891;28;20464;-42
2022/04/18 01:35:39;;;;;;;13.37;11.93;;;7.00;93.90;;;;;;5095029;28;20419;-43
2022/04/18 01:38:09;;;;;;;16.83;11.77;;;7.00;93.90;;;;;;5094484;28;20470;-44
2022/04/18 01:40:36;;;;;;;17.77;11.80;;;7.10;94.00;;;;;;5094312;28;20493;-43
2022/04/18 01:43:05;;;;;;;14.87;11.83;;;6.90;94.10;;;;;;5094533;28;21058;-43
2022/04/18 01:45:33;;;;;;;13.43;12.03;;;6.90;94.30;;;;;;5094730;28;20457;-43
2022/04/18 01:48:13;;;;;;;14.63;12.40;;;7.00;94.50;;;;;;5094347;28;20465;-43
2022/04/18 01:50:40;;;;;;;18.07;13.20;;;6.90;94.40;;;;;;5094130;28;20538;-43
2022/04/18 01:53:08;;;;;;;19.60;13.17;;;6.90;94.60;;;;;;5094580;28;20828;-42
2022/04/18 01:55:35;;;;;;;12.43;11.13;;;6.90;95.00;;;;;;5112756;28;20442;-43
2022/04/18 01:58:05;;;;;;;14.57;12.93;;;7.00;94.80;;;;;;5094429;28;20480;-44
2022/04/18 02:00:32;;;;;;;16.93;14.10;;;7.00;95.10;;;;;;5093664;28;20472;-42
2022/04/18 02:02:59;;;;;;;14.10;12.37;;;6.40;95.40;;;;;;5094839;28;21027;-43
2022/04/18 02:05:25;;;;;;;17.37;13.10;;;6.70;95.20;;;;;;5112633;28;20433;-43
2022/04/18 02:07:52;;;;;;;19.90;14.70;;;6.70;96.10;;;;;;5112338;28;20445;-44
2022/04/18 02:10:20;;;;;;;16.97;13.43;;;7.00;96.00;;;;;;5093909;28;20476;-43
2022/04/18 02:12:48;;;;;;;18.43;14.10;;;6.90;96.20;;;;;;5112846;28;20424;-45
2022/04/18 02:15:15;;;;;;;16.93;14.27;;;6.70;96.50;;;;;;5094100;28;20442;-44
2022/04/18 02:17:52;;;;;;;22.70;13.73;;;6.80;96.50;;;;;;5094320;28;20472;-44
2022/04/18 02:20:19;;;;;;;13.07;11.63;;;6.70;96.60;;;;;;5111945;28;20449;-44
2022/04/18 02:22:46;;;;;;;14.63;12.40;;;6.90;96.90;;;;;;5094224;28;20444;-45
2022/04/18 02:25:13;;;;;;;14.50;13.00;;;6.50;96.40;;;;;;5112766;28;20437;-44
2022/04/18 02:27:40;;;;;;;15.90;12.23;;;6.90;97.10;;;;;;5094181;28;20467;-44
2022/04/18 02:30:09;;;;;;;12.63;10.70;;;7.10;97.30;;;;;;5111919;28;20430;-44
2022/04/18 02:32:48;;;;;;;12.40;10.97;;;6.50;97.00;;;;;;5094191;28;20439;-43
2022/04/18 02:35:16;;;;;;;14.70;12.10;;;6.80;97.40;;;;;;5114768;28;20424;-44
2022/04/18 02:37:42;;;;;;;12.17;10.97;;;6.60;97.20;;;;;;5116237;28;20446;-44
2022/04/18 02:40:12;;;;;;;13.43;11.30;;;6.70;97.40;;;;;;5093545;28;20463;-43
2022/04/18 02:42:43;;;;;;;12.77;11.10;;;6.50;97.60;;;;;;5094012;28;20476;-44
2022/04/18 02:45:12;;;;;;;12.50;10.57;;;6.50;97.70;;;;;;5112257;28;20475;-45
2022/04/18 02:48:05;;;;;;;14.03;11.60;;;6.40;98.10;;;;;;5112009;28;20464;-43
2022/04/18 02:50:34;;;;;;;12.33;10.60;;;6.60;98.20;;;;;;5093400;28;20544;-44
2022/04/18 02:53:01;;;;;;;11.50;9.97;;;6.60;98.40;;;;;;5094034;28;20424;-43
2022/04/18 02:55:39;;;;;;;11.30;9.60;;;6.50;98.40;;;;;;5093977;28;20447;-46
2022/04/18 02:58:07;;;;;;;12.23;9.67;;;6.90;98.90;;;;;;5093806;28;20488;-44
2022/04/18 03:00:36;;;;;;;12.23;10.60;;;6.30;98.60;;;;;;5093716;28;20530;-44
2022/04/18 03:03:02;;;;;;;13.13;10.53;;;6.90;98.90;;;;;;5094133;28;20434;-43
2022/04/18 03:05:31;;;;;;;12.80;10.80;;;6.60;99.00;;;;;;5096101;28;20455;-44
2022/04/18 03:07:58;;;;;;;20.80;11.23;;;6.30;99.20;;;;;;5095962;28;20467;-43
2022/04/18 03:13:07;;;;;;;12.13;10.93;;;6.20;98.80;;;;;;5093171;28;20786;-42
2022/04/18 03:15:34;;;;;;;14.80;10.43;;;6.90;99.80;;;;;;5094008;28;20448;-41
2022/04/18 03:18:01;;;;;;;13.97;11.37;;;6.20;99.40;;;;;;5093679;28;20460;-43
2022/04/18 03:20:27;;;;;;;14.93;11.63;;;6.80;99.90;;;;;;5096917;28;20971;-44
2022/04/18 03:22:54;;;;;;;13.93;10.90;;;6.10;99.20;;;;;;5115407;28;20502;-43
2022/04/18 03:25:39;;;;;;;21.37;13.13;;;6.40;99.60;;;;;;5097231;28;20875;-44
2022/04/18 03:28:09;;;;;;;12.40;10.70;;;6.10;99.90;;;;;;5096938;28;20477;-43
2022/04/18 03:30:36;;;;;;;12.20;10.90;;;6.30;99.90;;;;;;5097177;28;20471;-43
2022/04/18 03:33:03;;;;;;;13.40;10.37;;;6.00;99.90;;;;;;5097728;28;20444;-43
2022/04/18 03:35:30;;;;;;;13.33;10.40;;;6.00;99.90;;;;;;5115795;28;20432;-43
2022/04/18 03:40:41;;;;;;;12.77;9.83;;;6.10;99.90;;;;;;5097395;28;20473;-44
2022/04/18 03:43:09;;;;;;;16.77;12.60;;;6.60;99.90;;;;;;5116215;28;20432;-44
2022/04/18 03:45:35;;;;;;;16.57;12.70;;;6.10;99.90;;;;;;5115048;28;20920;-43
2022/04/18 03:48:02;;;;;;;12.73;10.83;;;5.90;99.90;;;;;;5096493;28;20491;-43
2022/04/18 03:50:30;;;;;;;12.80;10.93;;;6.70;99.90;;;;;;5114815;28;20501;-44
2022/04/18 03:52:57;;;;;;;15.37;11.83;;;5.80;99.90;;;;;;5096831;28;20436;-44
2022/04/18 03:55:34;;;;;;;15.10;11.10;;;5.70;99.90;;;;;;5096983;28;20447;-44
2022/04/18 03:58:09;;;;;;;16.87;11.47;;;5.60;99.90;;;;;;5098146;28;21082;-43
2022/04/18 04:00:36;;;;;;;16.70;12.20;;;6.10;99.90;;;;;;5101546;28;20473;-43
2022/04/18 04:03:04;;;;;;;14.97;12.57;;;6.00;99.90;;;;;;5099386;28;20507;-42
2022/04/18 04:05:40;;;;;;;12.60;10.00;;;5.60;99.90;;;;;;5097841;28;20447;-43
2022/04/18 04:08:07;;;;;;;12.70;11.23;;;5.70;99.90;;;;;;5096899;28;20989;-43
2022/04/18 04:10:35;;;;;;;16.40;10.67;;;6.00;99.90;;;;;;5096295;28;20448;-43
2022/04/18 04:13:05;;;;;;;18.43;11.90;;;5.70;99.90;;;;;;5096443;28;20444;-43
2022/04/18 04:15:42;;;;;;;14.97;11.00;;;6.00;99.90;;;;;;5114971;28;20438;-43
2022/04/18 04:18:17;;;;;;;14.53;11.37;;;5.80;99.90;;;;;;5096469;28;20495;-44
2022/04/18 04:20:44;;;;;;;16.45;12.45;;;5.80;99.90;;;;;;5096377;28;20455;-43
2022/04/18 04:23:12;;;;;;;16.10;12.60;;;5.50;99.90;;;;;;5096410;28;20219;-44
2022/04/18 04:25:58;;;;;;;16.40;12.60;;;5.30;99.90;;;;;;5096479;28;20940;-43
2022/04/18 04:28:39;;;;;;;17.55;12.52;;;5.60;99.90;;;;;;5096459;28;20217;-43
2022/04/18 04:31:08;;;;;;;16.10;12.25;;;5.70;99.90;;;;;;5096417;28;20202;-43
2022/04/18 04:33:35;;;;;;;15.27;12.40;;;5.60;99.90;;;;;;5096545;28;20220;-44
2022/04/18 04:36:04;;;;;;;16.88;11.85;;;5.80;99.90;;;;;;5097168;28;20198;-43
2022/04/18 04:38:31;;;;;;;14.85;12.30;;;5.70;99.90;;;;;;5096471;28;20586;-43
2022/04/18 04:41:03;;;;;;;16.20;12.23;;;5.50;99.90;;;;;;5095806;28;20670;-43
2022/04/18 04:43:51;;;;;;;16.63;11.83;;;5.50;99.90;;;;;;5095730;28;20458;-43
2022/04/18 04:46:24;;;;;;;14.80;12.32;;;5.50;99.90;;;;;;5096102;28;20439;-42
2022/04/18 04:49:00;;;;;;;16.10;11.77;;;5.40;99.90;;;;;;5095663;28;20197;-44
2022/04/18 04:51:27;;;;;;;18.53;12.90;;;5.40;99.90;;;;;;5095491;28;20194;-43
2022/04/18 04:53:54;;;;;;;14.88;11.70;;;5.50;99.90;;;;;;5095605;28;20539;-45
2022/04/18 04:56:30;;;;;;;16.35;12.45;;;5.40;99.90;;;;;;5095173;28;20198;-43
2022/04/18 04:58:58;;;;;;;18.13;12.50;;;5.50;99.90;;;;;;5095252;28;20289;-44
2022/04/18 05:01:29;;;;;;;17.60;13.20;;;5.50;99.90;;;;;;5095985;28;20499;-43
2022/04/18 05:04:03;;;;;;;16.23;11.63;;;5.40;99.90;;;;;;5095852;28;20202;-42
2022/04/18 05:06:31;;;;;;;15.57;12.20;;;5.70;99.90;;;;;;5095332;28;20200;-43
2022/04/18 05:08:59;;;;;;;16.80;11.73;;;5.10;99.90;;;;;;5095084;28;20440;-43
2022/04/18 05:11:26;;;;;;;15.47;11.93;;;5.60;99.90;;;;;;5095643;28;20472;-44
2022/04/18 05:13:56;;;;;;;17.23;12.20;;;5.70;99.90;;;;;;5095766;28;20921;-43
2022/04/18 05:16:44;;;;;;;16.30;12.50;;;6.00;99.90;;;;;;5072302;28;20565;-43
2022/04/18 05:19:32;;;;;;;18.75;12.98;;;5.60;99.90;;;;;;5095254;28;20229;-44
2022/04/18 05:22:13;;;;;;;18.23;12.35;;;5.70;99.90;;;;;;5097145;28;20591;-42
2022/04/18 05:24:42;;;;;;;17.58;13.10;;;5.90;99.90;;;;;;5097284;28;20436;-44
2022/04/18 05:27:09;;;;;;;16.73;13.03;;;5.90;99.90;;;;;;5095236;28;20657;-44
2022/04/18 05:29:38;;;;;;;16.90;11.93;;;6.10;99.90;;;;;;5094623;28;20448;-42
2022/04/18 05:32:07;;;;;;;17.93;12.20;;;6.30;99.90;;;;;;5095314;28;20544;-44
2022/04/18 05:34:38;;;;;;;17.40;12.83;;;6.60;99.90;;;;;;5095296;28;20448;-42
2022/04/18 05:37:17;;;;;;;16.10;12.00;;;6.50;99.90;;;;;;5094753;28;20537;-45
2022/04/18 05:40:05;;;;;;;18.37;12.00;;;6.50;99.90;;;;;;5094627;28;20455;-43
2022/04/18 05:42:35;;;;;;;19.27;13.50;;;7.00;99.90;;;;;;5094139;28;20990;-44
2022/04/18 05:45:09;;;;;;;18.77;13.10;;;6.90;99.90;;;;;;5113232;28;20516;-44
2022/04/18 05:47:37;;;;;;;17.03;12.30;;;7.30;99.90;;;;;;5094904;28;20470;-42
2022/04/18 05:50:07;;;;;;;20.60;13.60;;;7.20;99.90;;;;;;5095013;28;20893;-43
2022/04/18 05:52:39;;;;;;;18.90;12.70;;;6.90;99.90;;;;;;5095541;28;20483;-43
2022/04/18 05:55:26;;;;;;;19.77;12.30;;;7.40;99.90;;;;;;5114073;28;20944;-43
2022/04/18 05:57:54;;;;;;;18.23;13.37;;;7.20;99.80;;;;;;5095922;28;20498;-44
2022/04/18 06:00:22;;;;;;;15.53;11.50;;;7.30;99.50;;;;;;5094071;28;21036;-43
2022/04/18 06:02:56;;;;;;;17.50;12.67;;;7.70;99.40;;;;;;5094724;28;20481;-43
2022/04/18 06:05:23;;;;;;;19.27;12.77;;;7.80;99.30;;;;;;5094805;28;20831;-43
2022/04/18 06:08:05;;;;;;;17.17;13.37;;;7.60;98.90;;;;;;5094496;28;20524;-43
2022/04/18 06:11:08;;;;;;;20.30;12.80;;;7.80;98.70;;;;;;5105951;28;20449;-45
2022/04/18 06:13:57;;;;;;;19.60;14.00;;;7.90;98.60;;;;;;5112642;28;20434;-44
2022/04/18 06:16:24;;;;;;;17.10;13.10;;;8.30;98.50;;;;;;5094219;28;20454;-44
2022/04/18 06:18:52;;;;;;;21.03;14.03;;;8.40;98.40;;;;;;5094110;28;20864;-44
2022/04/18 06:21:19;;;;;;;19.50;13.93;;;8.90;98.30;;;;;;5094531;28;20447;-44
2022/04/18 06:23:46;;;;;;;16.23;13.03;;;8.30;97.90;;;;;;5094258;28;20519;-43
2022/04/18 06:26:43;;;;;;;19.20;12.93;;;8.40;97.90;;;;;;5039712;28;20498;-44
2022/04/18 06:29:10;;;;;;;17.00;13.30;;;8.60;97.60;;;;;;5094193;28;20451;-44
2022/04/18 06:31:43;;;;;;;18.43;13.40;;;8.40;97.30;;;;;;5094652;28;20938;-43
2022/04/18 06:34:12;;;;;;;19.83;13.43;;;8.70;97.50;;;;;;5094722;28;20448;-44
2022/04/18 06:36:40;;;;;;;18.77;12.87;;;8.60;97.20;;;;;;5094551;28;21016;-44
2022/04/18 06:39:27;;;;;;;14.57;11.70;;;9.10;97.40;;;;;;5094120;28;20452;-43
2022/04/18 06:42:05;;;;;;;16.47;12.20;;;8.80;97.00;;;;;;5094424;28;20479;-42
2022/04/18 06:44:41;;;;;;;19.90;12.80;;;9.00;97.20;;;;;;5095640;28;20447;-44
2022/04/18 06:47:08;;;;;;;14.57;12.20;;;8.60;97.00;;;;;;5096778;28;20851;-43
2022/04/18 06:49:55;;;;;;;17.30;12.37;;;9.40;97.40;;;;;;5114733;28;20876;-43
2022/04/18 06:52:42;;;;;;;15.27;11.87;;;8.80;96.80;;;;;;5116997;28;20473;-43
2022/04/18 06:56:58;;;;;;;16.30;11.33;;;9.20;97.10;;;;;;5119662;28;20907;-44
2022/04/18 06:58:14;;;;;;;17.50;11.07;;;9.00;96.80;;;;;;5100994;28;20490;-45
2022/04/18 07:00:40;;;;;;;15.70;12.80;;;9.20;96.70;;;;;;5099485;28;20439;-44
2022/04/18 07:03:08;;;;;;;14.10;11.17;;;9.70;96.90;;;;;;5099297;28;20232;-44
2022/04/18 07:05:36;;;;;;;15.83;12.07;;;9.40;97.00;;;;;;5101617;28;20550;-43
2022/04/18 07:08:03;;;;;;;13.30;11.17;;;9.50;96.50;;;;;;5099311;28;20486;-44
2022/04/18 07:10:29;;;;;;;14.63;11.43;;;9.50;96.40;;;;;;5099698;28;20547;-45
2022/04/18 07:12:56;;;;;;;12.43;10.03;;;9.60;96.20;;;;;;5100525;28;20480;-43
2022/04/18 07:15:23;;;;;;;15.83;11.53;;;9.60;96.40;;;;;;5103460;28;20993;-44
2022/04/18 07:17:50;;;;;;;14.17;11.00;;;9.60;96.30;;;;;;5100915;28;20964;-44
2022/04/18 07:20:16;;;;;;;14.20;10.73;;;9.60;96.20;;;;;;5116284;28;20428;-44
2022/04/18 07:22:45;;;;;;;15.87;11.30;;;9.60;96.10;;;;;;5099089;28;20479;-43
2022/04/18 07:25:13;;;;;;;12.67;10.43;;;9.80;96.00;;;;;;5099428;28;20451;-45
2022/04/18 07:27:45;;;;;;;13.50;11.20;;;9.90;95.90;;;;;;5098319;28;20472;-45
2022/04/18 07:30:12;;;;;;;13.40;10.63;;;9.70;95.80;;;;;;5098077;28;20561;-45
2022/04/18 07:32:39;;;;;;;13.87;10.33;;;9.80;95.40;;;;;;5098422;28;20440;-43
2022/04/18 07:35:10;;;;;;;15.17;11.27;;;9.70;95.30;;;;;;5097952;28;20909;-45
2022/04/18 07:40:34;;;;;;;14.90;10.53;;;9.70;95.30;;;;;;5097330;28;20435;-45
2022/04/18 07:43:04;;;;;;;14.00;10.70;;;9.90;95.20;;;;;;5098435;28;20472;-44
2022/04/18 07:45:31;;;;;;;10.60;9.40;;;9.90;95.10;;;;;;5099069;28;21042;-43
2022/04/18 07:47:58;;;;;;;13.60;10.00;;;9.60;94.70;;;;;;5099847;28;20988;-45
2022/04/18 07:51:31;;;;;;;12.27;9.10;;;10.20;94.40;;;;;;5116705;28;20443;-45
2022/04/18 07:53:15;;;;;;;13.47;9.67;;;9.90;94.80;;;;;;5099277;28;20538;-45
2022/04/18 07:55:42;;;;;;;11.50;9.30;;;10.40;94.50;;;;;;5099567;28;20479;-46
2022/04/18 07:58:09;;;;;;;12.53;10.00;;;10.00;94.20;;;;;;5099217;28;20476;-44
2022/04/18 08:00:36;;;;;;;12.67;9.97;;;9.90;94.60;;;;;;5100410;28;20448;-45
2022/04/18 08:03:04;;;;;;;13.30;9.17;;;9.70;94.20;;;;;;5101744;28;20472;-43
2022/04/18 08:05:47;;;;;;;9.97;7.97;;;10.10;93.80;;;;;;5097425;28;20448;-45
2022/04/18 08:08:17;;;;;;;8.63;7.53;;;10.00;92.90;;;;;;5096960;28;20592;-43
2022/04/18 08:10:44;;;;;;;10.60;8.37;;;10.70;93.70;;;;;;5096326;28;20446;-43
2022/04/18 08:13:12;;;;;;;10.40;7.20;;;10.50;93.60;;;;;;5097258;28;20952;-44
2022/04/18 08:15:39;;;;;;;10.67;7.80;;;10.20;93.20;;;;;;5115438;28;20443;-45
2022/04/18 08:18:36;;;;;;;11.23;7.77;;;10.40;92.80;;;;;;5097248;28;20506;-44
2022/04/18 08:21:03;;;;;;;10.73;7.90;;;10.10;92.90;;;;;;5098114;28;20512;-42
2022/04/18 08:23:31;;;;;;;9.43;7.60;;;10.30;92.90;;;;;;5098259;28;20468;-44
2022/04/18 08:26:26;;;;;;;8.10;6.23;;;10.90;93.00;;;;;;5116113;28;20452;-43
2022/04/18 08:28:59;;;;;;;9.93;7.70;;;10.90;92.70;;;;;;5097062;28;20459;-45
2022/04/18 08:31:27;;;;;;;8.63;7.03;;;10.70;92.10;;;;;;5097257;28;20531;-44
2022/04/18 08:33:58;;;;;;;12.40;7.93;;;10.40;91.90;;;;;;5097804;28;20468;-43
2022/04/18 08:36:25;;;;;;;8.23;5.90;;;10.20;91.60;;;;;;5097617;28;20471;-44
2022/04/18 08:38:54;;;;;;;8.20;5.70;;;10.80;91.40;;;;;;5096132;28;20456;-44
2022/04/18 08:41:47;;;;;;;8.80;6.40;;;11.20;90.50;;;;;;5104631;28;20444;-44
2022/04/18 08:44:22;;;;;;;9.57;6.30;;;10.70;90.70;;;;;;5096995;28;20503;-45
2022/04/18 08:46:52;;;;;;;8.43;7.10;;;10.70;90.90;;;;;;5096121;28;20758;-44
2022/04/18 08:54:57;;;;;;;6.30;5.70;;;11.00;90.90;;;;;;5096842;28;20962;-43
2022/04/18 08:57:23;;;;;;;7.10;6.17;;;10.90;89.30;;;;;;5096662;28;20471;-42
2022/04/18 08:59:50;;;;;;;8.90;6.97;;;11.20;90.00;;;;;;5095625;28;20531;-44
2022/04/18 09:02:17;;;;;;;5.90;5.27;;;10.60;88.90;;;;;;5096020;28;20448;-43
2022/04/18 09:05:03;;;;;;;7.97;5.40;;;11.40;89.60;;;;;;5096830;28;20459;-44
2022/04/18 09:07:30;;;;;;;5.97;4.77;;;11.20;88.40;;;;;;5096287;28;20475;-43
2022/04/18 09:10:00;;;;;;;7.37;5.10;;;11.40;88.70;;;;;;5095464;28;20481;-43
2022/04/18 09:12:28;;;;;;;4.60;3.93;;;11.10;87.20;;;;;;5095240;28;20463;-43
2022/04/18 09:15:11;;;;;;;5.67;4.53;;;11.30;86.10;;;;;;5095234;28;20440;-43
2022/04/18 09:17:40;;;;;;;5.53;4.23;;;11.20;84.50;;;;;;5096000;28;20832;-43
2022/04/18 09:20:30;;;;;;;6.67;5.00;;;11.20;84.50;;;;;;5095719;28;20505;-44
2022/04/18 09:22:57;;;;;;;7.77;5.60;;;11.10;83.80;;;;;;5097485;28;20474;-44
2022/04/18 09:25:26;;;;;;;5.63;4.33;;;11.70;84.00;;;;;;5097167;28;20449;-45
2022/04/18 09:27:55;;;;;;;6.53;4.03;;;11.30;82.80;;;;;;5098031;28;20895;-45
2022/04/18 09:30:24;;;;;;;6.53;4.27;;;11.90;83.30;;;;;;5096063;28;20852;-43
2022/04/18 09:33:01;;;;;;;5.40;4.57;;;11.60;82.60;;;;;;5095296;28;20501;-44
2022/04/18 09:35:35;;;;;;;6.90;4.67;;;11.50;81.80;;;;;;5096295;28;20493;-43
2022/04/18 09:38:06;;;;;;;4.83;4.20;;;11.80;82.10;;;;;;5095848;28;20647;-45
2022/04/18 09:40:56;;;;;;;6.00;4.47;;;12.30;81.10;;;;;;5095359;28;20470;-46
2022/04/18 09:43:38;;;;;;;6.43;4.60;;;12.00;80.60;;;;;;5096446;28;20542;-46
2022/04/18 09:46:06;;;;;;;4.70;3.80;;;11.70;79.70;;;;;;5080712;28;20893;-44
2022/04/18 09:48:33;;;;;;;5.47;4.20;;;11.90;79.30;;;;;;5096274;28;20476;-45
2022/04/18 09:51:00;;;;;;;8.60;4.00;;;11.60;78.10;;;;;;5094942;28;20917;-45
2022/04/18 09:53:34;;;;;;;6.10;4.60;;;11.20;77.80;;;;;;5095228;28;20441;-45
2022/04/18 09:56:02;;;;;;;6.10;4.80;;;12.10;79.30;;;;;;5114791;28;20802;-43
2022/04/18 09:58:31;;;;;;;7.03;4.90;;;11.70;79.40;;;;;;5114275;28;20476;-44
2022/04/18 10:01:00;;;;;;;8.03;4.60;;;11.90;79.90;;;;;;5113595;28;20434;-45
2022/04/18 10:03:27;;;;;;;4.33;3.60;;;12.10;78.70;;;;;;5114083;28;20468;-44
2022/04/18 10:05:56;;;;;;;4.00;3.03;;;11.90;78.60;;;;;;5115152;28;20423;-46
2022/04/18 10:08:23;;;;;;;5.20;4.33;;;11.70;78.10;;;;;;5112609;28;20514;-47
2022/04/18 10:10:49;;;;;;;8.23;3.70;;;11.90;78.30;;;;;;5114521;28;20436;-45
2022/04/18 10:13:19;;;;;;;4.27;3.87;;;12.00;77.80;;;;;;5113967;28;20723;-43
2022/04/18 10:15:46;;;;;;;4.13;3.40;;;12.20;77.40;;;;;;5113019;28;20427;-45
2022/04/18 10:18:14;;;;;;;7.00;3.77;;;12.20;77.60;;;;;;5113849;28;20487;-45
2022/04/18 10:20:57;;;;;;;7.27;3.80;;;12.20;77.20;;;;;;5113001;28;20550;-44
2022/04/18 10:24:15;;;;;;;3.97;3.57;;;12.40;77.30;;;;;;5112633;28;21022;-44
2022/04/18 10:27:13;;;;;;;3.80;2.93;;;12.50;77.30;;;;;;5085381;28;20470;-44
2022/04/18 10:29:45;;;;;;;3.77;3.23;;;12.20;76.70;;;;;;5116458;28;20453;-46
2022/04/18 10:32:18;;;;;;;3.30;2.53;;;12.60;76.00;;;;;;5116664;28;20432;-43
2022/04/18 10:34:49;;;;;;;2.93;2.30;;;12.50;75.70;;;;;;5117228;28;20428;-45
2022/04/18 10:37:16;;;;;;;4.57;2.60;;;12.70;73.70;;;;;;5116378;28;20971;-44
2022/04/18 10:39:43;;;;;;;3.77;2.83;;;12.60;73.20;;;;;;5116326;28;20430;-46
2022/04/18 10:42:19;;;;;;;3.80;2.17;;;12.60;73.10;;;;;;5116394;28;20433;-45
2022/04/18 10:44:58;;;;;;;2.60;1.70;;;12.40;71.60;;;;;;5116909;28;20517;-44
2022/04/18 10:47:25;;;;;;;3.33;2.07;;;12.50;70.90;;;;;;5116511;28;20865;-45
2022/04/18 10:50:16;;;;;;;3.40;2.10;;;12.60;70.30;;;;;;5115587;28;20783;-44
2022/04/18 10:52:44;;;;;;;3.20;1.90;;;12.50;68.70;;;;;;5116202;28;20485;-46
2022/04/18 10:55:19;;;;;;;5.73;2.17;;;13.20;70.30;;;;;;5116718;28;20433;-44
2022/04/18 10:58:16;;;;;;;3.60;2.80;;;12.90;69.80;;;;;;5116253;28;20465;-44
2022/04/18 11:00:47;;;;;;;5.37;2.93;;;12.90;70.00;;;;;;5116006;28;20431;-45
2022/04/18 11:03:14;;;;;;;5.87;3.30;;;12.50;70.30;;;;;;5116368;28;20470;-44
2022/04/18 11:05:41;;;;;;;2.93;2.10;;;13.00;70.80;;;;;;5116443;28;20441;-44
2022/04/18 11:08:23;;;;;;;6.23;2.60;;;12.70;69.60;;;;;;5116561;28;20452;-44
2022/04/18 11:10:50;;;;;;;2.63;2.20;;;13.10;69.20;;;;;;5116276;28;20428;-44
2022/04/18 11:13:25;;;;;;;4.50;3.37;;;12.80;69.10;;;;;;5115932;28;20424;-44
2022/04/18 11:15:52;;;;;;;3.60;2.23;;;12.70;69.60;;;;;;5116446;28;20436;-44
2022/04/18 11:18:29;;;;;;;4.80;3.17;;;12.90;69.10;;;;;;5115449;28;20457;-45
2022/04/18 11:20:55;;;;;;;3.27;2.33;;;13.00;67.90;;;;;;5115569;28;20498;-45
2022/04/18 11:23:23;;;;;;;2.07;1.73;;;13.50;69.20;;;;;;5115681;28;20469;-45
2022/04/18 11:25:51;;;;;;;5.00;2.40;;;12.90;67.30;;;;;;5115880;28;20433;-44
2022/04/18 11:28:19;;;;;;;2.97;2.57;;;13.00;67.70;;;;;;5115842;28;20456;-45
2022/04/18 11:30:46;;;;;;;2.43;2.10;;;13.20;68.90;;;;;;5115462;28;20434;-44
2022/04/18 11:33:13;;;;;;;4.10;3.33;;;13.10;67.10;;;;;;5116249;28;20432;-45
2022/04/18 11:35:40;;;;;;;3.67;2.63;;;13.30;68.10;;;;;;5116524;28;20532;-45
2022/04/18 11:38:08;;;;;;;4.70;3.40;;;13.10;67.90;;;;;;5118602;28;20458;-43
2022/04/18 11:40:37;;;;;;;4.30;2.57;;;13.20;68.00;;;;;;5116142;28;20440;-45
2022/04/18 11:43:10;;;;;;;3.30;2.80;;;13.60;68.10;;;;;;5115160;28;20437;-44
2022/04/18 11:45:39;;;;;;;6.00;2.87;;;13.20;68.40;;;;;;5115092;28;20467;-44
2022/04/18 11:48:06;;;;;;;3.00;2.57;;;13.70;68.70;;;;;;5114877;28;20445;-43
2022/04/18 11:50:36;;;;;;;4.67;3.40;;;13.20;68.60;;;;;;5114637;28;20443;-43
2022/04/18 11:53:06;;;;;;;3.70;2.70;;;13.20;68.00;;;;;;5115116;28;20512;-44
2022/04/18 11:55:33;;;;;;;3.20;2.50;;;13.20;67.80;;;;;;5115202;28;20464;-45
2022/04/18 11:58:00;;;;;;;3.17;2.37;;;13.50;68.60;;;;;;5115163;28;20470;-44
2022/04/18 12:08:44;;;;;;;4.63;3.13;;;13.10;66.50;;;;;;5114708;28;20504;-46
2022/04/18 12:11:12;;;;;;;3.53;2.10;;;13.00;66.00;;;;;;5114680;28;20477;-45
2022/04/18 12:13:41;;;;;;;3.00;2.53;;;13.50;66.40;;;;;;5114453;28;20416;-44
2022/04/18 12:16:07;;;;;;;5.37;2.40;;;13.60;66.30;;;;;;5115202;28;20814;-44
2022/04/18 12:18:35;;;;;;;3.00;1.70;;;13.60;66.00;;;;;;5114121;28;20976;-44
2022/04/18 12:21:03;;;;;;;4.93;2.33;;;13.60;64.60;;;;;;5114811;28;20439;-45
2022/04/18 12:23:29;;;;;;;2.70;1.80;;;13.80;65.60;;;;;;5113857;28;20441;-45
2022/04/18 12:25:58;;;;;;;3.53;2.07;;;14.10;65.60;;;;;;5114473;28;20434;-43
2022/04/18 12:28:26;;;;;;;4.00;1.73;;;13.80;64.20;;;;;;5114043;28;20454;-44
2022/04/18 12:30:53;;;;;;;3.30;1.97;;;13.80;64.30;;;;;;5114459;28;20923;-46
2022/04/18 12:33:22;;;;;;;2.97;1.87;;;14.00;63.40;;;;;;5114168;28;20444;-45
2022/04/18 12:35:51;;;;;;;1.70;1.47;;;13.90;63.00;;;;;;5114205;28;20426;-45
2022/04/18 12:38:20;;;;;;;6.30;1.80;;;13.90;63.00;;;;;;5113954;28;20511;-45
2022/04/18 12:40:53;;;;;;;3.23;2.17;;;13.90;62.90;;;;;;5114676;28;20428;-45
2022/04/18 12:43:20;;;;;;;2.00;1.73;;;14.20;62.50;;;;;;5096028;28;20488;-44
2022/04/18 12:45:51;;;;;;;2.10;1.63;;;14.20;62.30;;;;;;5114211;28;20543;-44
2022/04/18 12:48:22;;;;;;;3.67;2.00;;;13.80;61.20;;;;;;5113427;28;20530;-47
2022/04/18 12:50:51;;;;;;;2.20;1.57;;;13.90;61.40;;;;;;5113693;28;20431;-43
2022/04/18 12:53:18;;;;;;;2.70;2.07;;;14.00;61.30;;;;;;5114133;28;20443;-45
2022/04/18 12:55:45;;;;;;;2.90;2.00;;;14.10;60.70;;;;;;5113969;28;20443;-44
2022/04/18 12:58:19;;;;;;;2.33;1.80;;;14.50;61.30;;;;;;5113158;28;20459;-44
2022/04/18 13:00:47;;;;;;;2.53;1.80;;;14.00;60.00;;;;;;5114259;28;20791;-44
2022/04/18 13:03:15;;;;;;;3.10;1.80;;;13.90;59.50;;;;;;5113959;28;20525;-45
2022/04/18 13:05:44;;;;;;;3.13;1.47;;;13.80;59.40;;;;;;5113885;28;20815;-44
2022/04/18 13:08:13;;;;;;;2.20;1.37;;;14.10;59.10;;;;;;5114249;28;20458;-45
2022/04/18 13:10:40;;;;;;;2.57;1.43;;;13.90;58.10;;;;;;5113224;28;20462;-44
2022/04/18 13:13:11;;;;;;;1.50;1.00;;;13.90;58.50;;;;;;5095561;28;20447;-43
2022/04/18 13:15:39;;;;;;;5.87;1.13;;;14.40;57.80;;;;;;5113577;28;20932;-43
2022/04/18 13:18:08;;;;;;;2.13;1.30;;;14.70;57.80;;;;;;5113173;28;20439;-45
2022/04/18 13:20:36;;;;;;;2.00;1.30;;;13.70;56.70;;;;;;5113328;28;20453;-45
2022/04/18 13:23:04;;;;;;;2.27;1.20;;;14.10;57.40;;;;;;5113817;28;20428;-46
2022/04/18 13:25:32;;;;;;;3.20;1.47;;;14.30;56.80;;;;;;5113522;28;20975;-46
2022/04/18 13:28:06;;;;;;;1.60;1.20;;;14.20;57.40;;;;;;5113017;28;20455;-43
2022/04/18 13:30:33;;;;;;;1.30;1.00;;;14.30;56.60;;;;;;5113047;28;20440;-45